Time;durP1;ratioP1;P1;durP2;ratioP2;P2;SDS_P1;SDS_P2;PMS_P1;PMS_P2;Temp;Humidity;BMP_temperature;BMP_pressure;BME280_temperature;BME280_humidity;BME280_pressure;Samples;Min_cycle;Max_cycle;Signal;HPM_P1;HPM_P2
2021/01/27 00:01:26;;;;;;;17.70;12.13;;;4.80;99.90;;;;;;5034498;28;20029;-81
2021/01/27 00:03:51;;;;;;;18.50;11.90;;;4.80;99.90;;;;;;5033715;28;20056;-81
2021/01/27 00:06:17;;;;;;;22.58;14.32;;;4.80;99.90;;;;;;5034483;28;20045;-82
2021/01/27 00:08:42;;;;;;;21.48;14.55;;;4.70;99.90;;;;;;5035009;28;20104;-82
2021/01/27 00:11:08;;;;;;;19.02;13.77;;;4.60;99.90;;;;;;5034445;28;20025;-82
2021/01/27 00:13:33;;;;;;;20.65;14.15;;;4.60;99.90;;;;;;5033660;28;20036;-82
2021/01/27 00:15:59;;;;;;;20.63;14.65;;;4.40;99.90;;;;;;5033842;28;20014;-82
2021/01/27 00:18:25;;;;;;;20.27;14.18;;;4.40;99.90;;;;;;5034485;28;20100;-82
2021/01/27 00:20:50;;;;;;;21.88;13.13;;;4.60;99.90;;;;;;5034266;28;20074;-81
2021/01/27 00:23:16;;;;;;;22.40;14.75;;;4.40;99.90;;;;;;5034525;28;20026;-81
2021/01/27 00:25:42;;;;;;;18.65;13.82;;;3.80;99.90;;;;;;5034178;28;20048;-82
2021/01/27 00:28:08;;;;;;;21.58;14.27;;;4.50;99.90;;;;;;5024512;28;20027;-82
2021/01/27 00:30:40;;;;;;;20.38;13.93;;;3.90;99.90;;;;;;5033137;28;20083;-82
2021/01/27 00:33:07;;;;;;;17.77;13.02;;;4.40;99.90;;;;;;5031404;28;20025;-82
2021/01/27 00:35:38;;;;;;;17.92;13.43;;;4.50;99.90;;;;;;5024555;28;20045;-82
2021/01/27 00:38:16;;;;;;;19.52;13.55;;;3.70;99.90;;;;;;5034169;28;20029;-82
2021/01/27 00:40:42;;;;;;;20.85;13.57;;;3.70;99.90;;;;;;5034486;28;20551;-82
2021/01/27 00:43:08;;;;;;;20.48;12.77;;;4.50;99.90;;;;;;5034170;28;20025;-82
2021/01/27 00:45:34;;;;;;;21.20;13.73;;;4.10;99.90;;;;;;5034394;28;20514;-82
2021/01/27 00:47:59;;;;;;;19.70;13.50;;;3.80;99.90;;;;;;5034012;28;20034;-82
2021/01/27 00:50:25;;;;;;;19.23;13.27;;;4.50;99.90;;;;;;5034045;28;20030;-82
2021/01/27 00:52:52;;;;;;;22.48;14.48;;;4.50;99.90;;;;;;5033996;28;20109;-82
2021/01/27 00:55:24;;;;;;;21.42;14.07;;;4.50;99.90;;;;;;5033871;28;20525;-82
2021/01/27 00:57:50;;;;;;;18.00;13.27;;;4.70;99.90;;;;;;5032865;28;20017;-82
2021/01/27 01:00:18;;;;;;;21.02;14.10;;;4.60;99.90;;;;;;5033342;28;20033;-82
2021/01/27 01:02:43;;;;;;;21.13;12.93;;;3.80;99.90;;;;;;5034096;28;20518;-82
2021/01/27 01:05:12;;;;;;;19.17;13.70;;;4.50;99.90;;;;;;5033682;28;20013;-82
2021/01/27 01:07:38;;;;;;;19.55;13.75;;;3.70;99.90;;;;;;5033862;28;20461;-82
2021/01/27 01:10:07;;;;;;;21.52;15.20;;;4.40;99.90;;;;;;5033217;28;20025;-82
2021/01/27 01:12:33;;;;;;;24.35;15.20;;;3.60;99.90;;;;;;5033051;28;20044;-82
2021/01/27 01:14:59;;;;;;;21.35;14.48;;;4.40;99.90;;;;;;5033313;28;20394;-82
2021/01/27 01:17:25;;;;;;;20.38;14.18;;;4.30;99.90;;;;;;5033620;28;20029;-82
2021/01/27 01:19:50;;;;;;;18.98;12.98;;;3.70;99.90;;;;;;5033546;28;20025;-82
2021/01/27 01:22:16;;;;;;;19.67;12.77;;;4.20;99.90;;;;;;5033934;28;20029;-82
2021/01/27 01:24:42;;;;;;;17.67;11.95;;;4.30;99.90;;;;;;5033821;28;20379;-81
2021/01/27 01:27:07;;;;;;;18.30;13.05;;;4.30;99.90;;;;;;5032276;28;20100;-82
2021/01/27 01:29:33;;;;;;;19.13;13.45;;;3.70;99.90;;;;;;5033142;28;20108;-82
2021/01/27 01:31:58;;;;;;;17.88;13.00;;;3.70;99.90;;;;;;5031494;28;20029;-81
2021/01/27 01:34:24;;;;;;;18.90;13.32;;;3.80;99.90;;;;;;5033103;28;20018;-82
2021/01/27 01:36:50;;;;;;;16.10;11.88;;;4.30;99.90;;;;;;5033122;28;20028;-82
2021/01/27 01:39:15;;;;;;;18.13;12.38;;;4.70;99.90;;;;;;5032997;28;20442;-82
2021/01/27 01:41:41;;;;;;;15.82;12.02;;;4.40;99.90;;;;;;5032765;28;20113;-81
2021/01/27 01:44:06;;;;;;;17.73;12.27;;;4.50;99.90;;;;;;5032794;28;20022;-82
2021/01/27 01:46:32;;;;;;;19.08;12.30;;;4.60;1.00;;;;;;5033030;28;20041;-82
2021/01/27 01:49:04;;;;;;;17.33;12.45;;;4.30;99.90;;;;;;5032729;28;20026;-82
2021/01/27 01:51:32;;;;;;;17.48;12.32;;;4.30;99.90;;;;;;5031321;28;20407;-82
2021/01/27 01:54:08;;;;;;;20.02;13.05;;;4.10;99.90;;;;;;5033255;28;20441;-82
2021/01/27 01:56:37;;;;;;;18.17;13.75;;;3.70;99.90;;;;;;5030586;28;20101;-82
2021/01/27 01:59:06;;;;;;;20.50;12.05;;;4.10;99.90;;;;;;5032459;28;20017;-82
2021/01/27 02:01:32;;;;;;;17.85;12.80;;;4.50;99.90;;;;;;5032704;28;20036;-82
2021/01/27 02:03:58;;;;;;;19.92;13.73;;;4.40;99.90;;;;;;5032198;28;20052;-82
2021/01/27 02:06:24;;;;;;;19.45;13.25;;;4.40;99.90;;;;;;5032524;28;20096;-82
2021/01/27 02:08:55;;;;;;;19.73;14.10;;;3.60;99.90;;;;;;5032874;28;20029;-82
2021/01/27 02:11:45;;;;;;;19.75;12.40;;;4.20;99.90;;;;;;5030996;28;20479;-82
2021/01/27 02:14:33;;;;;;;18.60;12.65;;;3.60;99.90;;;;;;5032443;28;20025;-82
2021/01/27 02:17:24;;;;;;;17.60;11.05;;;3.70;99.90;;;;;;5032249;28;20025;-82
2021/01/27 02:20:15;;;;;;;14.65;8.95;;;3.70;99.90;;;;;;5032541;28;20163;-82
2021/01/27 02:23:17;;;;;;;12.73;8.48;;;3.70;99.90;;;;;;5032074;28;20109;-82
2021/01/27 02:26:12;;;;;;;13.32;8.43;;;3.80;99.90;;;;;;5032111;28;20514;-82
2021/01/27 02:28:51;;;;;;;12.02;8.60;;;3.80;99.90;;;;;;5031994;28;20080;-82
2021/01/27 02:32:14;;;;;;;12.50;8.25;;;3.90;99.90;;;;;;5032066;28;20029;-82
2021/01/27 02:34:48;;;;;;;11.38;8.05;;;3.90;99.90;;;;;;4952093;29;20038;-82
2021/01/27 02:37:20;;;;;;;10.80;7.75;;;4.20;99.90;;;;;;4951021;29;20102;-82
2021/01/27 02:39:54;;;;;;;12.23;7.30;;;4.70;99.90;;;;;;4952074;29;20046;-81
2021/01/27 02:42:35;;;;;;;9.95;7.15;;;4.70;99.90;;;;;;4951609;29;20639;-82
2021/01/27 02:45:04;;;;;;;9.15;7.18;;;4.50;99.90;;;;;;4952177;29;20066;-82
2021/01/27 02:47:48;;;;;;;11.20;7.50;;;4.10;99.90;;;;;;4952473;29;20059;-82
2021/01/27 02:50:23;;;;;;;10.90;7.60;;;4.70;99.90;;;;;;4935639;29;20623;-82
2021/01/27 02:52:57;;;;;;;10.63;8.13;;;4.10;99.90;;;;;;4950949;29;20038;-82
2021/01/27 02:55:44;;;;;;;12.27;8.00;;;4.70;99.90;;;;;;4951166;29;20042;-82
2021/01/27 02:58:18;;;;;;;10.25;7.53;;;4.00;99.90;;;;;;4951803;29;20394;-82
2021/01/27 03:00:50;;;;;;;9.50;7.10;;;4.60;99.90;;;;;;4951185;29;20055;-82
2021/01/27 03:03:42;;;;;;;11.30;6.70;;;4.70;99.90;;;;;;4942536;29;20110;-82
2021/01/27 03:06:12;;;;;;;11.25;7.50;;;4.10;99.90;;;;;;5004838;28;20056;-81
2021/01/27 03:08:54;;;;;;;10.23;7.68;;;4.50;1.00;;;;;;5030550;28;20384;-82
2021/01/27 03:11:24;;;;;;;9.52;7.03;;;4.00;99.90;;;;;;5031141;28;20025;-82
2021/01/27 03:13:50;;;;;;;10.00;7.00;;;4.90;99.90;;;;;;5031495;28;20014;-82
2021/01/27 03:16:23;;;;;;;11.55;8.30;;;4.00;99.90;;;;;;5012424;28;20113;-82
2021/01/27 03:18:58;;;;;;;11.15;7.68;;;4.40;99.90;;;;;;5018397;28;20010;-82
2021/01/27 03:21:29;;;;;;;12.68;7.93;;;4.70;99.90;;;;;;5033925;28;20064;-81
2021/01/27 03:24:02;;;;;;;9.52;7.45;;;4.70;99.90;;;;;;5035540;28;20026;-82
2021/01/27 03:26:40;;;;;;;10.40;7.50;;;4.60;99.90;;;;;;5035703;28;20065;-82
2021/01/27 03:29:10;;;;;;;9.52;6.95;;;4.00;99.90;;;;;;5035659;28;20079;-82
2021/01/27 03:31:36;;;;;;;10.10;6.45;;;4.80;99.90;;;;;;5035869;28;20048;-82
2021/01/27 03:34:09;;;;;;;11.32;7.00;;;4.60;99.90;;;;;;5034583;28;20025;-82
2021/01/27 03:36:43;;;;;;;9.85;7.28;;;4.10;99.90;;;;;;5035419;28;20021;-81
2021/01/27 03:39:11;;;;;;;9.05;6.97;;;4.10;99.90;;;;;;5035402;28;20100;-82
2021/01/27 03:41:53;;;;;;;10.13;7.07;;;4.80;99.90;;;;;;5035647;28;20495;-81
2021/01/27 03:44:40;;;;;;;10.25;6.95;;;4.00;99.90;;;;;;5035244;28;20028;-82
2021/01/27 03:47:08;;;;;;;12.60;7.57;;;4.00;99.90;;;;;;5035629;28;20104;-81
2021/01/27 03:49:38;;;;;;;10.90;7.25;;;4.60;99.90;;;;;;5028887;28;20140;-82
2021/01/27 03:52:16;;;;;;;10.98;6.82;;;4.70;99.90;;;;;;5034904;28;20028;-82
2021/01/27 03:54:47;;;;;;;9.70;6.95;;;4.10;99.90;;;;;;5034855;28;20024;-82
2021/01/27 03:57:20;;;;;;;9.25;6.85;;;4.70;99.90;;;;;;5035306;28;20113;-82
2021/01/27 03:59:46;;;;;;;8.88;6.65;;;4.10;99.90;;;;;;5035399;28;20025;-82
2021/01/27 04:02:19;;;;;;;9.13;6.72;;;4.90;99.90;;;;;;5035328;28;20026;-82
2021/01/27 04:04:45;;;;;;;10.75;7.38;;;4.10;99.90;;;;;;5034909;28;21158;-82
2021/01/27 04:07:10;;;;;;;9.90;7.43;;;4.80;99.90;;;;;;5034533;28;20050;-82
2021/01/27 04:09:36;;;;;;;11.70;7.25;;;4.70;99.90;;;;;;5034766;28;20032;-82
2021/01/27 04:12:02;;;;;;;10.57;7.80;;;4.50;99.90;;;;;;5034299;28;20517;-82
2021/01/27 04:14:28;;;;;;;10.80;7.25;;;3.90;99.90;;;;;;5034130;28;20021;-82
2021/01/27 04:16:54;;;;;;;10.20;7.18;;;4.60;99.90;;;;;;5034200;28;20139;-82
2021/01/27 04:19:19;;;;;;;9.38;7.20;;;4.50;99.90;;;;;;5034610;28;20394;-82
2021/01/27 04:21:45;;;;;;;9.63;6.95;;;3.70;99.90;;;;;;5034335;28;20038;-82
2021/01/27 04:24:11;;;;;;;8.80;7.28;;;4.40;99.90;;;;;;5034830;28;20053;-82
2021/01/27 04:26:36;;;;;;;11.23;7.20;;;4.10;99.90;;;;;;5034693;28;20040;-82
2021/01/27 04:29:04;;;;;;;15.25;8.05;;;4.30;99.90;;;;;;5034548;28;20033;-82
2021/01/27 04:31:29;;;;;;;14.65;8.90;;;4.30;99.90;;;;;;5033287;28;20391;-82
2021/01/27 04:33:55;;;;;;;15.57;10.00;;;4.10;99.90;;;;;;5034217;28;20017;-82
2021/01/27 04:36:21;;;;;;;16.77;9.50;;;3.80;99.90;;;;;;5033907;28;20026;-82
2021/01/27 04:38:47;;;;;;;13.77;8.80;;;4.00;99.90;;;;;;5034715;28;20020;-82
2021/01/27 04:41:14;;;;;;;12.95;8.50;;;4.20;99.90;;;;;;5034648;28;20108;-82
2021/01/27 04:43:42;;;;;;;11.35;8.13;;;3.50;99.90;;;;;;5033720;28;20017;-82
2021/01/27 04:46:22;;;;;;;18.48;11.88;;;3.40;99.90;;;;;;5034005;28;20487;-82
2021/01/27 04:48:53;;;;;;;32.30;19.10;;;3.40;99.90;;;;;;5033983;28;20409;-82
2021/01/27 04:51:25;;;;;;;25.30;14.65;;;3.40;99.90;;;;;;5033332;28;20095;-82
2021/01/27 04:53:59;;;;;;;16.40;10.77;;;3.30;99.90;;;;;;5020145;28;20100;-82
2021/01/27 04:56:27;;;;;;;14.65;9.40;;;3.70;99.90;;;;;;5034001;28;20214;-82
2021/01/27 04:59:31;;;;;;;12.27;8.85;;;3.90;99.90;;;;;;5032566;28;20391;-82
2021/01/27 05:02:41;;;;;;;11.38;8.40;;;3.30;99.90;;;;;;4992467;28;20046;-82
2021/01/27 05:05:13;;;;;;;11.48;7.93;;;3.30;99.90;;;;;;4983084;28;20037;-82
2021/01/27 05:08:10;;;;;;;15.00;8.43;;;3.20;99.90;;;;;;4992106;28;20053;-82
2021/01/27 05:10:47;;;;;;;13.00;8.45;;;3.60;99.90;;;;;;4982430;28;20162;-82
2021/01/27 05:13:24;;;;;;;12.40;7.93;;;3.40;99.90;;;;;;4985346;28;20039;-82
2021/01/27 05:15:50;;;;;;;10.98;8.00;;;3.50;99.90;;;;;;4973395;28;20027;-82
2021/01/27 05:18:17;;;;;;;11.73;8.80;;;4.00;99.90;;;;;;4987377;28;20034;-82
2021/01/27 05:20:42;;;;;;;12.10;8.43;;;4.30;99.90;;;;;;4976479;28;20034;-82
2021/01/27 05:23:08;;;;;;;11.73;8.07;;;4.00;99.90;;;;;;4991076;28;20408;-82
2021/01/27 05:25:43;;;;;;;12.07;8.77;;;4.20;99.90;;;;;;4991342;28;20070;-82
2021/01/27 05:28:14;;;;;;;14.63;8.55;;;3.60;99.90;;;;;;4981839;28;20050;-82
2021/01/27 05:31:00;;;;;;;11.30;7.63;;;4.50;99.90;;;;;;4989876;28;20550;-82
2021/01/27 05:33:50;;;;;;;10.15;7.97;;;3.60;99.90;;;;;;4974108;28;20472;-82
2021/01/27 05:36:23;;;;;;;11.25;8.48;;;3.60;99.90;;;;;;4984207;28;20547;-82
2021/01/27 05:38:50;;;;;;;12.65;8.00;;;4.30;99.90;;;;;;4987710;28;20081;-82
2021/01/27 05:41:21;;;;;;;14.75;8.32;;;4.40;99.90;;;;;;5010142;28;20369;-82
2021/01/27 05:43:49;;;;;;;13.32;7.97;;;4.60;99.90;;;;;;5012587;28;20034;-82
2021/01/27 05:46:35;;;;;;;11.32;8.60;;;4.60;99.90;;;;;;5013482;28;20650;-82
2021/01/27 05:49:02;;;;;;;11.23;7.68;;;3.70;99.90;;;;;;5012845;28;20030;-82
2021/01/27 05:51:32;;;;;;;12.75;8.15;;;3.90;99.90;;;;;;5013080;28;20034;-82
2021/01/27 05:53:59;;;;;;;14.05;7.72;;;4.40;99.90;;;;;;5013160;28;20022;-82
2021/01/27 05:56:26;;;;;;;12.30;8.05;;;4.40;99.90;;;;;;5012212;28;20017;-82
2021/01/27 05:59:01;;;;;;;11.88;8.23;;;4.40;99.90;;;;;;5012970;28;20097;-82
2021/01/27 06:01:39;;;;;;;12.13;7.63;;;4.40;99.90;;;;;;5008251;28;20054;-82
2021/01/27 06:04:10;;;;;;;13.05;7.50;;;3.70;99.90;;;;;;5012160;28;20120;-82
2021/01/27 06:06:56;;;;;;;11.15;7.47;;;4.30;99.90;;;;;;5021179;28;20487;-82
2021/01/27 06:09:29;;;;;;;10.85;7.38;;;4.50;99.90;;;;;;5009837;28;20335;-82
2021/01/27 06:12:09;;;;;;;10.55;6.90;;;4.50;99.90;;;;;;5018167;28;20018;-82
2021/01/27 06:14:35;;;;;;;8.90;7.03;;;4.00;99.90;;;;;;5032453;28;20450;-82
2021/01/27 06:17:24;;;;;;;14.05;7.35;;;4.00;99.90;;;;;;5032426;28;20049;-82
2021/01/27 06:20:16;;;;;;;12.85;7.57;;;4.40;99.90;;;;;;5032281;28;20030;-82
2021/01/27 06:22:48;;;;;;;11.75;7.25;;;4.10;99.90;;;;;;5032590;28;20494;-82
2021/01/27 06:25:45;;;;;;;9.18;6.75;;;4.10;99.90;;;;;;5031529;28;20029;-82
2021/01/27 06:28:45;;;;;;;13.82;8.00;;;4.10;99.90;;;;;;4970802;28;20039;-82
2021/01/27 06:31:23;;;;;;;13.15;7.03;;;4.00;99.90;;;;;;4989551;28;20039;-82
2021/01/27 06:34:21;;;;;;;12.15;7.00;;;4.00;99.90;;;;;;4991088;28;20065;-82
2021/01/27 06:37:01;;;;;;;12.20;6.82;;;4.00;99.90;;;;;;4939203;28;20036;-81
2021/01/27 06:39:56;;;;;;;11.88;6.75;;;4.10;99.90;;;;;;4955494;28;20082;-82
2021/01/27 06:42:40;;;;;;;11.32;7.22;;;4.10;99.90;;;;;;4975996;28;20042;-82
2021/01/27 06:45:32;;;;;;;15.63;7.75;;;4.10;99.90;;;;;;4983662;28;20031;-81
2021/01/27 06:48:01;;;;;;;14.90;6.10;;;4.20;99.90;;;;;;4977248;28;20113;-81
2021/01/27 06:50:35;;;;;;;10.40;6.43;;;4.70;99.90;;;;;;4979486;28;20039;-87
2021/01/27 06:53:37;;;;;;;12.90;6.95;;;4.20;99.90;;;;;;4972204;28;20038;-83
2021/01/27 06:56:24;;;;;;;14.27;6.97;;;4.20;99.90;;;;;;4971165;28;20601;-81
2021/01/27 06:59:31;;;;;;;17.98;6.97;;;4.20;99.90;;;;;;4972174;28;20065;-84
2021/01/27 07:02:21;;;;;;;15.65;8.00;;;4.00;99.90;;;;;;4964823;28;20043;-81
2021/01/27 07:05:22;;;;;;;11.82;7.40;;;4.00;99.90;;;;;;4994429;28;20508;-80
2021/01/27 07:08:02;;;;;;;11.43;6.90;;;4.40;99.90;;;;;;5023650;28;20124;-81
2021/01/27 07:10:55;;;;;;;12.02;6.53;;;3.90;99.90;;;;;;5012937;28;20061;-81
2021/01/27 07:13:58;;;;;;;12.32;7.80;;;3.90;99.90;;;;;;4971906;28;20037;-81
2021/01/27 07:16:36;;;;;;;14.75;9.63;;;3.90;99.90;;;;;;4990156;28;20049;-81
2021/01/27 07:19:16;;;;;;;15.48;8.15;;;3.80;99.90;;;;;;4990300;28;20125;-81
2021/01/27 07:21:46;;;;;;;12.25;7.00;;;3.70;99.90;;;;;;4990440;28;20030;-81
2021/01/27 07:24:33;;;;;;;13.48;7.72;;;3.60;99.90;;;;;;4990448;28;20042;-81
2021/01/27 07:27:07;;;;;;;13.50;7.93;;;3.50;99.90;;;;;;4982868;28;20489;-81
2021/01/27 07:29:48;;;;;;;11.82;7.30;;;3.50;99.90;;;;;;4954437;28;20114;-81
2021/01/27 07:32:36;;;;;;;16.42;8.50;;;3.60;99.90;;;;;;4970834;28;20031;-81
2021/01/27 07:35:17;;;;;;;12.13;8.10;;;3.50;99.90;;;;;;4972295;28;20098;-81
2021/01/27 07:38:15;;;;;;;13.30;7.85;;;3.60;99.90;;;;;;4990409;28;20034;-81
2021/01/27 07:40:53;;;;;;;10.98;7.65;;;3.70;99.90;;;;;;4988462;28;20050;-81
2021/01/27 07:43:24;;;;;;;13.88;7.38;;;4.40;99.90;;;;;;4989870;28;20540;-81
2021/01/27 07:45:53;;;;;;;15.30;7.43;;;4.30;99.90;;;;;;4990174;28;20030;-81
2021/01/27 07:48:40;;;;;;;13.52;7.53;;;4.00;99.90;;;;;;4987405;28;20040;-81
2021/01/27 07:51:08;;;;;;;12.98;6.80;;;4.30;99.90;;;;;;5019488;28;20046;-81
2021/01/27 07:53:47;;;;;;;16.85;7.35;;;4.40;99.90;;;;;;5012124;28;20072;-81
2021/01/27 07:56:30;;;;;;;11.65;6.90;;;4.70;99.90;;;;;;5011675;28;20427;-81
2021/01/27 07:59:15;;;;;;;16.15;7.15;;;4.60;99.90;;;;;;5011634;28;20026;-81
2021/01/27 08:01:48;;;;;;;13.73;7.18;;;4.80;99.90;;;;;;5011840;28;20029;-81
2021/01/27 08:04:42;;;;;;;18.88;7.53;;;4.90;99.90;;;;;;5023327;28;20029;-81
2021/01/27 08:07:43;;;;;;;12.88;6.50;;;5.00;99.90;;;;;;5032545;28;20403;-81
2021/01/27 08:10:30;;;;;;;11.85;6.93;;;5.10;99.90;;;;;;5027355;28;20076;-81
2021/01/27 08:12:59;;;;;;;16.92;6.75;;;5.10;99.90;;;;;;5034597;28;20029;-81
2021/01/27 08:15:24;;;;;;;13.05;6.63;;;5.40;99.90;;;;;;5034918;28;20026;-81
2021/01/27 08:17:58;;;;;;;14.60;6.90;;;5.70;99.90;;;;;;5035190;28;20032;-81
2021/01/27 08:20:33;;;;;;;12.05;7.10;;;5.20;99.90;;;;;;5034602;28;20018;-81
2021/01/27 08:23:21;;;;;;;8.77;6.65;;;5.10;99.90;;;;;;5034747;28;20053;-81
2021/01/27 08:25:52;;;;;;;14.82;8.40;;;5.10;99.90;;;;;;5034711;28;20049;-81
2021/01/27 08:28:33;;;;;;;14.43;8.77;;;5.00;99.90;;;;;;5033841;28;20078;-81
2021/01/27 08:31:12;;;;;;;16.25;8.43;;;5.10;99.90;;;;;;5034604;28;20442;-81
2021/01/27 08:33:41;;;;;;;11.07;8.45;;;5.20;99.90;;;;;;5034675;28;20029;-81
2021/01/27 08:36:10;;;;;;;15.23;8.27;;;5.80;99.90;;;;;;5033345;28;20034;-81
2021/01/27 08:38:40;;;;;;;15.75;8.35;;;5.70;99.90;;;;;;5034487;28;20022;-81
2021/01/27 08:41:09;;;;;;;15.65;7.60;;;5.20;99.90;;;;;;5034493;28;20079;-81
2021/01/27 08:43:42;;;;;;;11.00;7.20;;;5.20;99.90;;;;;;5034388;28;20022;-81
2021/01/27 08:46:26;;;;;;;17.48;8.10;;;5.40;99.90;;;;;;5034023;28;20025;-81
2021/01/27 08:48:52;;;;;;;15.52;7.47;;;5.60;99.90;;;;;;5033288;28;20021;-81
2021/01/27 08:51:40;;;;;;;14.68;7.80;;;5.40;99.90;;;;;;5034014;28;20108;-81
2021/01/27 08:54:41;;;;;;;15.00;8.23;;;5.00;99.90;;;;;;5034225;28;20014;-81
2021/01/27 08:57:33;;;;;;;14.95;8.43;;;5.20;99.90;;;;;;5033836;28;20025;-81
2021/01/27 09:00:32;;;;;;;10.82;7.57;;;5.20;99.90;;;;;;5034102;28;20026;-81
2021/01/27 09:03:00;;;;;;;11.20;7.07;;;5.30;99.90;;;;;;5033794;28;20040;-81
2021/01/27 09:05:26;;;;;;;15.88;7.90;;;5.40;99.90;;;;;;5034152;28;20022;-81
2021/01/27 09:08:12;;;;;;;15.93;8.18;;;5.40;99.90;;;;;;5033796;28;20056;-81
2021/01/27 09:10:47;;;;;;;14.13;7.90;;;5.50;99.90;;;;;;5033398;28;20049;-81
2021/01/27 09:13:39;;;;;;;17.95;7.63;;;6.00;99.90;;;;;;5033731;28;20017;-81
2021/01/27 09:16:10;;;;;;;13.40;7.30;;;6.00;99.90;;;;;;5032645;28;20396;-81
2021/01/27 09:18:37;;;;;;;11.93;7.20;;;5.90;99.90;;;;;;5032266;28;20060;-81
2021/01/27 09:21:04;;;;;;;12.45;7.43;;;6.30;99.90;;;;;;5033632;28;20514;-81
2021/01/27 09:23:29;;;;;;;10.27;6.95;;;6.60;99.90;;;;;;5033134;28;20087;-81
2021/01/27 09:25:55;;;;;;;11.43;6.97;;;6.30;99.90;;;;;;5033354;28;20030;-81
2021/01/27 09:28:24;;;;;;;10.98;7.72;;;6.70;99.90;;;;;;5033643;28;20025;-81
2021/01/27 09:30:51;;;;;;;18.67;7.72;;;6.60;99.90;;;;;;5033777;28;20513;-81
2021/01/27 09:33:28;;;;;;;12.38;6.95;;;7.10;99.90;;;;;;5033207;28;20052;-81
2021/01/27 09:36:08;;;;;;;12.73;7.72;;;7.30;99.90;;;;;;5033714;28;20045;-81
2021/01/27 09:38:35;;;;;;;12.85;7.93;;;7.20;99.90;;;;;;5032738;28;20024;-81
2021/01/27 09:41:14;;;;;;;13.82;7.65;;;7.10;99.90;;;;;;5033096;28;20053;-81
2021/01/27 09:43:46;;;;;;;14.63;8.20;;;7.40;99.90;;;;;;5033331;28;20501;-81
2021/01/27 09:46:36;;;;;;;10.82;6.93;;;8.30;99.90;;;;;;5033272;28;20029;-81
2021/01/27 09:49:11;;;;;;;11.98;7.03;;;7.90;99.90;;;;;;5033149;28;20033;-81
2021/01/27 09:51:47;;;;;;;13.90;6.85;;;8.10;99.90;;;;;;5033219;28;20108;-80
2021/01/27 09:54:14;;;;;;;13.10;6.93;;;8.10;99.90;;;;;;5013118;28;20112;-81
2021/01/27 09:56:40;;;;;;;9.45;6.90;;;8.10;99.90;;;;;;5013359;28;20030;-80
2021/01/27 09:59:07;;;;;;;19.10;7.47;;;7.80;99.90;;;;;;5014910;28;20060;-80
2021/01/27 10:01:33;;;;;;;7.60;5.55;;;8.00;99.90;;;;;;5032994;28;20025;-81
2021/01/27 10:04:30;;;;;;;9.77;5.97;;;7.30;99.90;;;;;;5033124;28;20395;-81
2021/01/27 10:07:16;;;;;;;11.70;6.28;;;7.40;99.90;;;;;;5032808;28;20533;-80
2021/01/27 10:09:56;;;;;;;13.80;6.20;;;7.50;99.90;;;;;;5012664;28;20029;-81
2021/01/27 10:12:31;;;;;;;9.60;6.80;;;7.50;99.90;;;;;;5012936;28;20101;-81
2021/01/27 10:15:09;;;;;;;9.90;6.22;;;8.20;99.90;;;;;;5013161;28;20510;-81
2021/01/27 10:17:35;;;;;;;11.43;7.05;;;7.80;99.90;;;;;;5013036;28;20061;-80
2021/01/27 10:20:06;;;;;;;11.23;6.20;;;8.20;99.90;;;;;;5013090;28;20029;-81
2021/01/27 10:22:38;;;;;;;9.65;5.90;;;7.80;99.90;;;;;;5018437;28;20033;-81
2021/01/27 10:25:24;;;;;;;10.85;6.53;;;7.90;99.90;;;;;;5031087;28;20024;-81
2021/01/27 10:28:21;;;;;;;8.65;5.20;;;7.60;99.90;;;;;;5032593;28;20036;-81
2021/01/27 10:30:51;;;;;;;9.93;6.30;;;7.50;99.90;;;;;;5031562;28;20490;-80
2021/01/27 10:33:40;;;;;;;11.18;6.10;;;7.30;99.90;;;;;;5032346;28;20082;-81
2021/01/27 10:36:25;;;;;;;11.88;6.50;;;7.10;99.90;;;;;;5032637;28;20375;-81
2021/01/27 10:39:12;;;;;;;11.02;6.20;;;7.00;99.90;;;;;;5032006;28;20356;-80
2021/01/27 10:41:38;;;;;;;12.18;6.70;;;7.20;99.90;;;;;;5032276;28;20029;-81
2021/01/27 10:44:27;;;;;;;11.07;6.05;;;7.40;99.90;;;;;;5032516;28;20037;-80
2021/01/27 10:46:59;;;;;;;10.13;7.00;;;8.00;99.90;;;;;;5031115;28;20434;-81
2021/01/27 10:49:25;;;;;;;10.93;6.53;;;8.30;99.90;;;;;;5032109;28;20033;-81
2021/01/27 10:51:51;;;;;;;14.95;7.05;;;8.60;99.90;;;;;;5031498;28;20018;-81
2021/01/27 10:54:21;;;;;;;10.07;7.05;;;8.80;99.90;;;;;;5032298;28;20025;-81
2021/01/27 10:56:54;;;;;;;18.13;7.50;;;8.40;99.90;;;;;;5032428;28;20093;-80
2021/01/27 10:59:21;;;;;;;14.00;7.28;;;8.20;99.90;;;;;;5032050;28;20565;-81
2021/01/27 11:01:47;;;;;;;12.65;7.38;;;8.10;99.90;;;;;;5032187;28;20030;-81
2021/01/27 11:04:12;;;;;;;10.77;7.88;;;7.80;99.90;;;;;;5032188;28;20029;-81
2021/01/27 11:06:43;;;;;;;10.20;6.72;;;8.10;99.90;;;;;;5031345;28;20056;-81
2021/01/27 11:09:09;;;;;;;12.68;6.70;;;7.90;99.90;;;;;;5032030;28;20032;-81
2021/01/27 11:11:36;;;;;;;11.25;6.38;;;8.10;99.90;;;;;;5031795;28;20487;-81
2021/01/27 11:14:03;;;;;;;9.82;5.95;;;8.10;99.90;;;;;;5032076;28;20024;-80
2021/01/27 11:16:29;;;;;;;10.68;6.57;;;7.70;99.90;;;;;;5031909;28;20018;-80
2021/01/27 11:18:55;;;;;;;12.23;6.97;;;8.20;99.90;;;;;;5032173;28;20434;-81
2021/01/27 11:21:21;;;;;;;9.20;6.40;;;8.00;99.90;;;;;;5030877;28;20030;-80
2021/01/27 11:23:46;;;;;;;14.07;6.78;;;8.00;99.90;;;;;;5030387;28;20363;-81
2021/01/27 11:26:18;;;;;;;12.93;6.32;;;7.90;99.90;;;;;;5032068;28;20076;-81
2021/01/27 11:28:48;;;;;;;10.32;6.32;;;8.00;99.90;;;;;;5031924;28;20123;-81
2021/01/27 11:31:15;;;;;;;10.32;6.45;;;7.90;99.90;;;;;;5031808;28;20047;-81
2021/01/27 11:33:41;;;;;;;12.73;6.82;;;8.00;99.90;;;;;;5031600;28;20030;-81
2021/01/27 11:36:08;;;;;;;9.52;6.70;;;8.20;99.90;;;;;;5031522;28;20083;-81
2021/01/27 11:38:33;;;;;;;14.32;6.82;;;7.70;99.90;;;;;;5031376;28;20055;-81
2021/01/27 11:40:59;;;;;;;13.07;7.20;;;7.90;99.90;;;;;;5031939;28;20025;-80
2021/01/27 11:43:25;;;;;;;10.73;6.28;;;7.90;99.90;;;;;;5034239;28;20060;-80
2021/01/27 11:45:50;;;;;;;20.08;7.38;;;8.10;99.90;;;;;;5035423;28;20369;-81
2021/01/27 11:48:16;;;;;;;10.93;6.68;;;8.40;99.90;;;;;;5035470;28;20028;-80
2021/01/27 11:50:41;;;;;;;17.15;6.97;;;8.20;99.90;;;;;;5034782;28;20034;-81
2021/01/27 11:53:07;;;;;;;12.90;7.13;;;8.30;99.90;;;;;;5034764;28;20028;-81
2021/01/27 11:55:33;;;;;;;11.35;6.80;;;8.40;99.90;;;;;;5035282;28;20418;-81
2021/01/27 11:57:58;;;;;;;13.13;6.85;;;8.30;99.90;;;;;;5035160;28;20057;-80
2021/01/27 12:00:24;;;;;;;12.05;6.55;;;8.50;99.90;;;;;;5035300;28;20510;-81
2021/01/27 12:02:50;;;;;;;10.18;6.22;;;8.60;99.90;;;;;;5035442;28;20026;-81
2021/01/27 12:05:18;;;;;;;11.45;6.07;;;8.40;99.90;;;;;;5035032;28;20080;-81
2021/01/27 12:07:44;;;;;;;8.60;6.30;;;8.30;99.90;;;;;;5034613;28;20048;-81
2021/01/27 12:10:10;;;;;;;10.38;6.78;;;8.30;99.90;;;;;;5034971;28;20026;-81
2021/01/27 12:12:36;;;;;;;13.90;7.55;;;8.50;99.90;;;;;;5035084;28;20046;-81
2021/01/27 12:15:03;;;;;;;13.70;8.68;;;8.50;99.90;;;;;;5035086;28;20080;-81
2021/01/27 12:17:29;;;;;;;12.68;7.07;;;8.40;99.90;;;;;;5035072;28;20057;-81
2021/01/27 12:19:55;;;;;;;11.70;7.57;;;8.50;99.90;;;;;;5033940;28;20029;-81
2021/01/27 12:22:20;;;;;;;11.77;8.55;;;8.40;99.90;;;;;;5034814;28;20080;-81
2021/01/27 12:24:46;;;;;;;10.15;7.85;;;8.40;99.90;;;;;;5034797;28;20447;-81
2021/01/27 12:27:12;;;;;;;11.82;7.40;;;8.20;99.90;;;;;;5034820;28;20025;-81
2021/01/27 12:29:37;;;;;;;12.40;7.22;;;8.40;99.90;;;;;;5034633;28;20491;-80
2021/01/27 12:32:03;;;;;;;10.52;6.88;;;8.50;99.90;;;;;;5034841;28;20458;-81
2021/01/27 12:34:29;;;;;;;9.48;7.35;;;8.40;99.90;;;;;;5033906;28;20104;-81
2021/01/27 12:36:54;;;;;;;12.65;7.05;;;8.30;99.90;;;;;;5033381;28;20022;-81
2021/01/27 12:39:20;;;;;;;15.68;8.02;;;8.40;99.90;;;;;;5034717;28;20403;-79
2021/01/27 12:41:48;;;;;;;12.57;7.63;;;8.40;99.90;;;;;;5034501;28;20025;-81
2021/01/27 12:44:13;;;;;;;15.50;8.40;;;8.30;99.90;;;;;;5034602;28;20030;-81
2021/01/27 12:46:39;;;;;;;18.67;8.88;;;8.30;99.90;;;;;;5034324;28;20570;-81
2021/01/27 12:49:04;;;;;;;14.02;8.82;;;8.40;99.90;;;;;;5033445;28;20489;-81
2021/01/27 12:51:30;;;;;;;15.10;9.55;;;8.40;99.90;;;;;;5034293;28;20036;-81
2021/01/27 12:53:57;;;;;;;12.75;8.20;;;8.40;99.90;;;;;;5033245;28;20029;-81
2021/01/27 12:56:22;;;;;;;15.98;8.07;;;8.40;99.90;;;;;;5034177;28;20071;-81
2021/01/27 12:58:48;;;;;;;20.98;8.70;;;8.40;99.90;;;;;;5034121;28;20061;-81
2021/01/27 13:01:14;;;;;;;14.40;8.50;;;8.40;99.90;;;;;;5033904;28;20061;-81
2021/01/27 13:03:40;;;;;;;19.13;8.73;;;8.40;99.90;;;;;;5033413;28;20025;-81
2021/01/27 13:06:05;;;;;;;16.52;8.30;;;8.30;99.90;;;;;;5034009;28;20053;-81
2021/01/27 13:08:31;;;;;;;13.35;7.82;;;8.30;99.90;;;;;;5034119;28;20083;-81
2021/01/27 13:10:57;;;;;;;30.13;9.05;;;8.30;99.90;;;;;;5033795;28;20037;-81
2021/01/27 13:13:22;;;;;;;12.55;7.35;;;8.40;99.90;;;;;;5033378;28;20071;-81
2021/01/27 13:15:48;;;;;;;13.25;8.18;;;8.40;99.90;;;;;;5032424;28;20418;-81
2021/01/27 13:18:14;;;;;;;9.35;6.30;;;8.40;99.90;;;;;;5033588;28;20372;-81